UAE5CL NZCH-YSSY
Flight info
| Callsign | UAE5CL |
|---|---|
| Flight time | N/A |
| Altitude | 40000 |
| Route | BAVEM7PVANDA/02 VANDA N750 PLUGA DCT RIKNI N774 MARLN |
| Aircraft | A388/J-SADE2E3FGHIJ3J4J5M1RWXY/LB1D1 |
Departure
| Time | N/A |
|---|---|
| Airport | Christchurch International Airport (NZCH) |
Arrival
| Time | 2026-04-26 10:14 |
|---|---|
| Airport | Sydney Kingsford Smith International Airport (YSSY) |
| Time | Latitude | Longitude | Altitude | Speed | Heading |
|---|---|---|---|---|---|
| 2026-04-26 09:35 | -35.55176 | 154.60939 | 40251 ft | 487 kts | 310° |
| 2026-04-26 09:35 | -35.52968 | 154.57775 | 40301 ft | 489 kts | 310° |
| 2026-04-26 09:36 | -35.48553 | 154.51445 | 40302 ft | 487 kts | 310° |
| 2026-04-26 09:36 | -35.44139 | 154.45140 | 40297 ft | 487 kts | 310° |
| 2026-04-26 09:37 | -35.39726 | 154.38853 | 40296 ft | 486 kts | 310° |
| 2026-04-26 09:37 | -35.35331 | 154.32604 | 40311 ft | 488 kts | 310° |
| 2026-04-26 09:38 | -35.30891 | 154.26302 | 40303 ft | 489 kts | 310° |
| 2026-04-26 09:38 | -35.26442 | 154.19998 | 40306 ft | 489 kts | 310° |
| 2026-04-26 09:39 | -35.21988 | 154.13698 | 40306 ft | 489 kts | 310° |
| 2026-04-26 09:39 | -35.17524 | 154.07397 | 40308 ft | 489 kts | 310° |
| 2026-04-26 09:40 | -35.13069 | 154.01120 | 40304 ft | 488 kts | 310° |
| 2026-04-26 09:40 | -35.08619 | 153.94861 | 40300 ft | 488 kts | 310° |
| 2026-04-26 09:41 | -35.04199 | 153.88657 | 40294 ft | 487 kts | 310° |
| 2026-04-26 09:41 | -34.99758 | 153.82432 | 40133 ft | 484 kts | 310° |
| 2026-04-26 09:41 | -34.97551 | 153.79343 | 39725 ft | 483 kts | 310° |
| 2026-04-26 09:42 | -34.95345 | 153.76257 | 39242 ft | 482 kts | 310° |
| 2026-04-26 09:42 | -34.93147 | 153.73187 | 38700 ft | 480 kts | 310° |
| 2026-04-26 09:42 | -34.90955 | 153.70126 | 38077 ft | 480 kts | 310° |
| 2026-04-26 09:42 | -34.88755 | 153.67059 | 37374 ft | 481 kts | 310° |
| 2026-04-26 09:43 | -34.86543 | 153.63976 | 36623 ft | 484 kts | 311° |
| 2026-04-26 09:43 | -34.84396 | 153.60988 | 35974 ft | 485 kts | 311° |
| 2026-04-26 09:43 | -34.82164 | 153.57884 | 35165 ft | 490 kts | 311° |
| 2026-04-26 09:43 | -34.79924 | 153.54770 | 34659 ft | 487 kts | 311° |
| 2026-04-26 09:44 | -34.77694 | 153.51674 | 34114 ft | 485 kts | 311° |
| 2026-04-26 09:44 | -34.75479 | 153.48601 | 33574 ft | 482 kts | 311° |
| 2026-04-26 09:44 | -34.73278 | 153.45551 | 33134 ft | 477 kts | 311° |
| 2026-04-26 09:44 | -34.71123 | 153.42568 | 32601 ft | 474 kts | 311° |
| 2026-04-26 09:45 | -34.68953 | 153.39565 | 32128 ft | 471 kts | 311° |
| 2026-04-26 09:45 | -34.66803 | 153.36593 | 31660 ft | 467 kts | 311° |
| 2026-04-26 09:45 | -34.64658 | 153.33630 | 31144 ft | 465 kts | 311° |
| 2026-04-26 09:45 | -34.62520 | 153.30680 | 30688 ft | 462 kts | 311° |
| 2026-04-26 09:46 | -34.60401 | 153.27758 | 30202 ft | 459 kts | 311° |
| 2026-04-26 09:46 | -34.58302 | 153.24866 | 29691 ft | 456 kts | 311° |
| 2026-04-26 09:46 | -34.56208 | 153.21983 | 29250 ft | 450 kts | 311° |
| 2026-04-26 09:46 | -34.54164 | 153.19171 | 28663 ft | 449 kts | 311° |
| 2026-04-26 09:47 | -34.52103 | 153.16338 | 28206 ft | 445 kts | 311° |
| 2026-04-26 09:47 | -34.50064 | 153.13539 | 27738 ft | 442 kts | 311° |
| 2026-04-26 09:47 | -34.48029 | 153.10746 | 27149 ft | 441 kts | 311° |
| 2026-04-26 09:47 | -34.46007 | 153.07975 | 26762 ft | 436 kts | 312° |
| 2026-04-26 09:48 | -34.44004 | 153.05231 | 26306 ft | 433 kts | 312° |
| 2026-04-26 09:48 | -34.42013 | 153.02505 | 25789 ft | 432 kts | 312° |
| 2026-04-26 09:48 | -34.40034 | 152.99797 | 25436 ft | 426 kts | 312° |
| 2026-04-26 09:48 | -34.38066 | 152.97107 | 24936 ft | 424 kts | 312° |
| 2026-04-26 09:49 | -34.36133 | 152.94468 | 24479 ft | 422 kts | 312° |
| 2026-04-26 09:49 | -34.34187 | 152.91812 | 24112 ft | 418 kts | 312° |
| 2026-04-26 09:49 | -34.32263 | 152.89188 | 23570 ft | 417 kts | 312° |
| 2026-04-26 09:49 | -34.30342 | 152.86571 | 23096 ft | 414 kts | 312° |
| 2026-04-26 09:50 | -34.28434 | 152.83972 | 22615 ft | 411 kts | 312° |
| 2026-04-26 09:50 | -34.26537 | 152.81391 | 22143 ft | 408 kts | 313° |
| 2026-04-26 09:50 | -34.24657 | 152.78835 | 21705 ft | 405 kts | 312° |
| 2026-04-26 09:50 | -34.22794 | 152.76304 | 21253 ft | 402 kts | 312° |
| 2026-04-26 09:51 | -34.20941 | 152.73789 | 20795 ft | 400 kts | 313° |
| 2026-04-26 09:51 | -34.19100 | 152.71291 | 20354 ft | 397 kts | 313° |
| 2026-04-26 09:51 | -34.17267 | 152.68806 | 19900 ft | 395 kts | 313° |
| 2026-04-26 09:51 | -34.15473 | 152.66376 | 19465 ft | 393 kts | 313° |
| 2026-04-26 09:52 | -34.13662 | 152.63923 | 19069 ft | 390 kts | 313° |
| 2026-04-26 09:52 | -34.10084 | 152.59059 | 18148 ft | 386 kts | 309° |
| 2026-04-26 09:52 | -34.08679 | 152.56320 | 17688 ft | 384 kts | 294° |
| 2026-04-26 09:53 | -34.07899 | 152.53258 | 17272 ft | 381 kts | 279° |
| 2026-04-26 09:53 | -34.07594 | 152.50096 | 16777 ft | 379 kts | 276° |
| 2026-04-26 09:53 | -34.07312 | 152.46938 | 16363 ft | 376 kts | 276° |
| 2026-04-26 09:53 | -34.07025 | 152.43834 | 15924 ft | 373 kts | 276° |
| 2026-04-26 09:54 | -34.06731 | 152.40718 | 15475 ft | 371 kts | 276° |
| 2026-04-26 09:54 | -34.06444 | 152.37692 | 15156 ft | 366 kts | 276° |
| 2026-04-26 09:54 | -34.06155 | 152.34647 | 14757 ft | 363 kts | 276° |
| 2026-04-26 09:54 | -34.05868 | 152.31632 | 14288 ft | 362 kts | 277° |
| 2026-04-26 09:55 | -34.05582 | 152.28629 | 13959 ft | 357 kts | 276° |
| 2026-04-26 09:55 | -34.05298 | 152.25664 | 13492 ft | 355 kts | 276° |
| 2026-04-26 09:55 | -34.05016 | 152.22719 | 13051 ft | 352 kts | 276° |
| 2026-04-26 09:55 | -34.04735 | 152.19792 | 12539 ft | 352 kts | 276° |
| 2026-04-26 09:56 | -34.04454 | 152.16871 | 12144 ft | 348 kts | 276° |
| 2026-04-26 09:56 | -34.04176 | 152.13986 | 11683 ft | 347 kts | 276° |
| 2026-04-26 09:56 | -34.03902 | 152.11149 | 11240 ft | 346 kts | 276° |
| 2026-04-26 09:56 | -34.03625 | 152.08293 | 11013 ft | 337 kts | 276° |
| 2026-04-26 09:57 | -34.03356 | 152.05533 | 10850 ft | 325 kts | 277° |
| 2026-04-26 09:57 | -34.03093 | 152.02893 | 10693 ft | 309 kts | 277° |
| 2026-04-26 09:57 | -34.02840 | 152.00379 | 10422 ft | 298 kts | 277° |
| 2026-04-26 09:57 | -34.02590 | 151.97908 | 9977 ft | 295 kts | 277° |
| 2026-04-26 09:58 | -34.02343 | 151.95463 | 9662 ft | 292 kts | 277° |
| 2026-04-26 09:58 | -34.02100 | 151.93046 | 9328 ft | 290 kts | 277° |
| 2026-04-26 09:58 | -34.01859 | 151.90662 | 8981 ft | 289 kts | 277° |
| 2026-04-26 09:58 | -34.01615 | 151.88260 | 8613 ft | 289 kts | 277° |
| 2026-04-26 09:59 | -34.01373 | 151.85868 | 8323 ft | 286 kts | 277° |
| 2026-04-26 09:59 | -34.01210 | 151.84265 | 8107 ft | 285 kts | 277° |
| 2026-04-26 09:59 | -34.00890 | 151.81126 | 7674 ft | 283 kts | 277° |
| 2026-04-26 09:59 | -34.00650 | 151.78780 | 7371 ft | 281 kts | 277° |
| 2026-04-26 10:00 | -34.00412 | 151.76443 | 7104 ft | 280 kts | 277° |
| 2026-04-26 10:00 | -34.00173 | 151.74121 | 7029 ft | 279 kts | 277° |
| 2026-04-26 10:00 | -33.99935 | 151.71801 | 7032 ft | 280 kts | 277° |
| 2026-04-26 10:00 | -33.99695 | 151.69466 | 7029 ft | 281 kts | 277° |
| 2026-04-26 10:01 | -33.99454 | 151.67129 | 7028 ft | 281 kts | 277° |
| 2026-04-26 10:01 | -33.99216 | 151.64827 | 7028 ft | 280 kts | 277° |
| 2026-04-26 10:01 | -33.98974 | 151.62497 | 7029 ft | 280 kts | 277° |
| 2026-04-26 10:01 | -33.98733 | 151.60173 | 7026 ft | 280 kts | 277° |
| 2026-04-26 10:02 | -33.98491 | 151.57846 | 7026 ft | 280 kts | 277° |
| 2026-04-26 10:02 | -33.98249 | 151.55516 | 7023 ft | 280 kts | 277° |
| 2026-04-26 10:02 | -33.98007 | 151.53187 | 7022 ft | 280 kts | 277° |
| 2026-04-26 10:02 | -33.97765 | 151.50861 | 7020 ft | 280 kts | 277° |
| 2026-04-26 10:03 | -33.97523 | 151.48543 | 7013 ft | 279 kts | 277° |
| 2026-04-26 10:03 | -33.97280 | 151.46226 | 6871 ft | 278 kts | 277° |
| 2026-04-26 10:03 | -33.97038 | 151.43915 | 6689 ft | 276 kts | 277° |
| 2026-04-26 10:03 | -33.96797 | 151.41628 | 6350 ft | 275 kts | 277° |
| 2026-04-26 10:04 | -33.96852 | 151.39379 | 6061 ft | 273 kts | 254° |
| 2026-04-26 10:04 | -33.97745 | 151.37393 | 6005 ft | 272 kts | 227° |
| 2026-04-26 10:04 | -33.99296 | 151.36110 | 6009 ft | 274 kts | 201° |
| 2026-04-26 10:04 | -34.01125 | 151.35453 | 6007 ft | 276 kts | 194° |
| 2026-04-26 10:05 | -34.02989 | 151.34904 | 6004 ft | 275 kts | 191° |
| 2026-04-26 10:05 | -34.04896 | 151.34754 | 5993 ft | 275 kts | 175° |
| 2026-04-26 10:05 | -34.06765 | 151.35192 | 5821 ft | 275 kts | 166° |
| 2026-04-26 10:05 | -34.08625 | 151.35745 | 5623 ft | 273 kts | 167° |
| 2026-04-26 10:06 | -34.10472 | 151.36244 | 5278 ft | 270 kts | 168° |
| 2026-04-26 10:06 | -34.12320 | 151.36727 | 4611 ft | 275 kts | 168° |
| 2026-04-26 10:06 | -34.14179 | 151.37198 | 3980 ft | 276 kts | 171° |
| 2026-04-26 10:06 | -34.16081 | 151.37113 | 3412 ft | 274 kts | 198° |
| 2026-04-26 10:07 | -34.17703 | 151.35998 | 3122 ft | 267 kts | 227° |
| 2026-04-26 10:07 | -34.18809 | 151.34200 | 3047 ft | 269 kts | 240° |
| 2026-04-26 10:07 | -34.19691 | 151.32198 | 3019 ft | 270 kts | 248° |
| 2026-04-26 10:07 | -34.20481 | 151.30150 | 3012 ft | 266 kts | 248° |
| 2026-04-26 10:08 | -34.21118 | 151.28129 | 3007 ft | 248 kts | 264° |
| 2026-04-26 10:08 | -34.20911 | 151.26185 | 3009 ft | 226 kts | 298° |
| 2026-04-26 10:08 | -34.19954 | 151.24810 | 3034 ft | 207 kts | 326° |
| 2026-04-26 10:08 | -34.18722 | 151.24032 | 3019 ft | 192 kts | 341° |
| 2026-04-26 10:09 | -34.17515 | 151.23596 | 3025 ft | 175 kts | 346° |
| 2026-04-26 10:09 | -34.16714 | 151.23366 | 3011 ft | 179 kts | 348° |
| 2026-04-26 10:09 | -34.15081 | 151.22934 | 3008 ft | 181 kts | 348° |
| 2026-04-26 10:09 | -34.13830 | 151.22605 | 3006 ft | 188 kts | 348° |
| 2026-04-26 10:10 | -34.12566 | 151.22275 | 3006 ft | 188 kts | 348° |
| 2026-04-26 10:10 | -34.11279 | 151.21939 | 2969 ft | 189 kts | 348° |
| 2026-04-26 10:10 | -34.09992 | 151.21601 | 2727 ft | 185 kts | 349° |
| 2026-04-26 10:10 | -34.08795 | 151.21289 | 2471 ft | 168 kts | 349° |
| 2026-04-26 10:11 | -34.07690 | 151.21001 | 2247 ft | 161 kts | 349° |
| 2026-04-26 10:11 | -34.06631 | 151.20724 | 2034 ft | 155 kts | 350° |
| 2026-04-26 10:11 | -34.05584 | 151.20451 | 1830 ft | 153 kts | 351° |
| 2026-04-26 10:11 | -34.04545 | 151.20179 | 1620 ft | 152 kts | 350° |
| 2026-04-26 10:12 | -34.03496 | 151.19900 | 1430 ft | 156 kts | 353° |
| 2026-04-26 10:12 | -34.02465 | 151.19603 | 1258 ft | 151 kts | 352° |
| 2026-04-26 10:12 | -34.01415 | 151.19341 | 1038 ft | 153 kts | 355° |
| 2026-04-26 10:12 | -34.00378 | 151.19080 | 886 ft | 153 kts | 354° |
| 2026-04-26 10:13 | -33.99346 | 151.18817 | 678 ft | 151 kts | 354° |
| 2026-04-26 10:13 | -33.98325 | 151.18548 | 468 ft | 151 kts | 353° |
| 2026-04-26 10:13 | -33.97293 | 151.18282 | 252 ft | 151 kts | 353° |
| 2026-04-26 10:13 | -33.96272 | 151.18014 | 53 ft | 151 kts | 354° |
| 2026-04-26 10:14 | -33.95359 | 151.17790 | 28 ft | 112 kts | 349° |
| 2026-04-26 10:14 | -33.94714 | 151.17623 | 28 ft | 80 kts | 349° |
| 2026-04-26 10:14 | -33.94248 | 151.17501 | 30 ft | 58 kts | 348° |
| 2026-04-26 10:14 | -33.94024 | 151.17441 | 23 ft | 21 kts | 348° |
| 2026-04-26 10:15 | -33.93944 | 151.17371 | 27 ft | 12 kts | 265° |
| 2026-04-26 10:15 | -33.93956 | 151.17292 | 26 ft | 1 kts | 256° |
| 2026-04-26 10:16 | -33.93958 | 151.17283 | 26 ft | 3 kts | 260° |
| 2026-04-26 10:16 | -33.93957 | 151.17251 | 25 ft | 5 kts | 288° |
| 2026-04-26 10:17 | -33.93934 | 151.17213 | 24 ft | 5 kts | 342° |
| 2026-04-26 10:17 | -33.93880 | 151.17200 | 23 ft | 10 kts | 349° |
| 2026-04-26 10:17 | -33.93829 | 151.17189 | 21 ft | 12 kts | 349° |
| 2026-04-26 10:17 | -33.93723 | 151.17162 | 23 ft | 11 kts | 346° |
| 2026-04-26 10:18 | -33.93657 | 151.17142 | 28 ft | 10 kts | 346° |
| 2026-04-26 10:18 | -33.93585 | 151.17121 | 30 ft | 11 kts | 347° |
| 2026-04-26 10:18 | -33.93515 | 151.17084 | 29 ft | 11 kts | 317° |
| 2026-04-26 10:18 | -33.93498 | 151.17054 | 29 ft | 0 kts | 284° |
| 2026-04-26 10:19 | -33.93497 | 151.17048 | 30 ft | 2 kts | 271° |
| 2026-04-26 10:19 | -33.93510 | 151.16978 | 30 ft | 15 kts | 255° |
| 2026-04-26 10:19 | -33.93562 | 151.16819 | 29 ft | 6 kts | 237° |
| 2026-04-26 10:19 | -33.93562 | 151.16818 | 29 ft | 0 kts | 237° |